createdAt,value
2016-07-02T00:00:20.655Z,1005.55
2016-07-02T00:01:20.657Z,1005.51
2016-07-02T00:02:20.659Z,1005.49
2016-07-02T00:03:20.682Z,1005.49
2016-07-02T00:04:20.663Z,1005.5
2016-07-02T00:05:20.668Z,1005.49
2016-07-02T00:06:20.870Z,1005.5
2016-07-02T00:07:20.695Z,1005.48
2016-07-02T00:08:20.670Z,1005.48
2016-07-02T00:09:20.724Z,1005.43
2016-07-02T00:10:20.670Z,1005.41
2016-07-02T00:11:20.672Z,1005.43
2016-07-02T00:12:20.671Z,1005.46
2016-07-02T00:13:20.675Z,1005.48
2016-07-02T00:14:20.673Z,1005.51
2016-07-02T00:15:20.686Z,1005.52
2016-07-02T00:16:20.680Z,1005.48
2016-07-02T00:17:20.682Z,1005.46
2016-07-02T00:18:20.683Z,1005.51
2016-07-02T00:19:20.684Z,1005.5
2016-07-02T00:20:20.682Z,1005.52
2016-07-02T00:21:20.690Z,1005.51
2016-07-02T00:22:20.689Z,1005.5
2016-07-02T00:23:20.688Z,1005.5
2016-07-02T00:24:20.692Z,1005.53
2016-07-02T00:25:20.696Z,1005.48
2016-07-02T00:26:20.694Z,1005.54
2016-07-02T00:27:20.696Z,1005.53
2016-07-02T00:28:20.695Z,1005.51
2016-07-02T00:29:20.697Z,1005.47
2016-07-02T00:30:20.697Z,1005.48
2016-07-02T00:31:20.702Z,1005.43
2016-07-02T00:32:20.701Z,1005.4
2016-07-02T00:33:20.704Z,1005.36
2016-07-02T00:34:20.704Z,1005.35
2016-07-02T00:35:20.700Z,1005.36
2016-07-02T00:36:20.707Z,1005.32
2016-07-02T00:37:20.709Z,1005.37
2016-07-02T00:38:20.707Z,1005.36
2016-07-02T00:39:20.718Z,1005.34
2016-07-02T00:40:20.709Z,1005.32
2016-07-02T00:41:20.710Z,1005.33
2016-07-02T00:42:20.715Z,1005.34
2016-07-02T00:43:20.718Z,1005.32
2016-07-02T00:44:20.716Z,1005.27
2016-07-02T00:45:20.719Z,1005.29
2016-07-02T00:46:20.719Z,1005.25
2016-07-02T00:47:20.724Z,1005.27
2016-07-02T00:48:20.721Z,1005.23
2016-07-02T00:49:20.724Z,1005.23
2016-07-02T00:50:20.727Z,1005.28
2016-07-02T00:51:20.726Z,1005.3
2016-07-02T00:52:20.727Z,1005.3
2016-07-02T00:53:20.729Z,1005.33
2016-07-02T00:54:20.731Z,1005.32
2016-07-02T00:55:20.735Z,1005.34
2016-07-02T00:56:20.732Z,1005.39
2016-07-02T00:57:20.729Z,1005.39
2016-07-02T00:58:20.738Z,1005.4
2016-07-02T00:59:20.934Z,1005.38
2016-07-02T01:00:20.735Z,1005.38
2016-07-02T01:01:20.738Z,1005.34
2016-07-02T01:02:20.739Z,1005.33
2016-07-02T01:03:20.739Z,1005.33
2016-07-02T01:04:20.742Z,1005.34
2016-07-02T01:05:20.745Z,1005.32
2016-07-02T01:06:20.744Z,1005.34
2016-07-02T01:07:20.744Z,1005.31
2016-07-02T01:08:20.750Z,1005.32
2016-07-02T01:09:20.794Z,1005.31
2016-07-02T01:10:20.751Z,1005.29
2016-07-02T01:11:20.750Z,1005.26
2016-07-02T01:12:20.749Z,1005.22
2016-07-02T01:13:20.753Z,1005.23
2016-07-02T01:14:20.750Z,1005.28
2016-07-02T01:15:20.752Z,1005.28
2016-07-02T01:16:20.757Z,1005.21
2016-07-02T01:17:20.754Z,1005.21
2016-07-02T01:18:20.756Z,1005.18
2016-07-02T01:19:20.755Z,1005.16
2016-07-02T01:20:20.760Z,1005.17
2016-07-02T01:21:20.758Z,1005.15
2016-07-02T01:22:20.763Z,1005.17
2016-07-02T01:23:20.758Z,1005.15
2016-07-02T01:24:20.770Z,1005.11
2016-07-02T01:25:20.765Z,1005.11
2016-07-02T01:26:20.764Z,1005.12
2016-07-02T01:27:20.766Z,1005.15
2016-07-02T01:28:20.771Z,1005.14
2016-07-02T01:29:20.770Z,1005.11
2016-07-02T01:30:20.771Z,1005.12
2016-07-02T01:31:20.773Z,1005.14
2016-07-02T01:32:20.775Z,1005.16
2016-07-02T01:33:20.774Z,1005.14
2016-07-02T01:34:20.778Z,1005.15
2016-07-02T01:35:20.777Z,1005.14
2016-07-02T01:36:20.779Z,1005.16
2016-07-02T01:37:20.778Z,1005.12
2016-07-02T01:38:20.787Z,1005.19
2016-07-02T01:39:20.788Z,1005.19
2016-07-02T01:40:20.785Z,1005.24
2016-07-02T01:41:20.787Z,1005.27
2016-07-02T01:42:20.796Z,1005.32
2016-07-02T01:43:20.790Z,1005.27
2016-07-02T01:44:20.790Z,1005.29
2016-07-02T01:45:20.792Z,1005.28
2016-07-02T01:46:20.795Z,1005.26
2016-07-02T01:47:20.793Z,1005.27
2016-07-02T01:48:20.795Z,1005.31
2016-07-02T01:49:20.798Z,1005.31
2016-07-02T01:50:20.802Z,1005.31
2016-07-02T01:51:20.800Z,1005.35
2016-07-02T01:52:20.802Z,1005.36
2016-07-02T01:53:20.804Z,1005.36
2016-07-02T01:54:20.802Z,1005.4
2016-07-02T01:55:20.803Z,1005.41
2016-07-02T01:56:20.803Z,1005.43
2016-07-02T01:57:20.802Z,1005.41
2016-07-02T01:58:20.803Z,1005.37
2016-07-02T01:59:20.809Z,1005.42
2016-07-02T02:00:20.807Z,1005.37
2016-07-02T02:01:20.807Z,1005.4
2016-07-02T02:02:20.812Z,1005.42
2016-07-02T02:03:20.810Z,1005.4
2016-07-02T02:04:20.814Z,1005.47
2016-07-02T02:05:20.821Z,1005.42
2016-07-02T02:06:20.810Z,1005.42
2016-07-02T02:07:20.816Z,1005.47
2016-07-02T02:08:20.820Z,1005.47
2016-07-02T02:09:20.817Z,1005.43
2016-07-02T02:10:20.819Z,1005.43
2016-07-02T02:11:21.021Z,1005.45
2016-07-02T02:12:20.823Z,1005.41
2016-07-02T02:13:21.021Z,1005.38
2016-07-02T02:14:20.824Z,1005.4
2016-07-02T02:15:20.823Z,1005.34
2016-07-02T02:16:20.825Z,1005.39
2016-07-02T02:17:20.830Z,1005.36
2016-07-02T02:18:20.828Z,1005.37
2016-07-02T02:19:20.831Z,1005.39
2016-07-02T02:20:20.828Z,1005.39
2016-07-02T02:21:20.832Z,1005.41
2016-07-02T02:22:20.833Z,1005.4
2016-07-02T02:23:20.836Z,1005.45
2016-07-02T02:24:20.836Z,1005.45
2016-07-02T02:25:20.834Z,1005.44
2016-07-02T02:26:20.841Z,1005.42
2016-07-02T02:27:20.839Z,1005.45
2016-07-02T02:28:20.845Z,1005.42
2016-07-02T02:29:20.841Z,1005.47
2016-07-02T02:30:20.841Z,1005.47
2016-07-02T02:31:20.842Z,1005.48
2016-07-02T02:32:20.843Z,1005.54
2016-07-02T02:33:20.849Z,1005.5
2016-07-02T02:34:20.845Z,1005.55
2016-07-02T02:35:20.846Z,1005.54
2016-07-02T02:36:20.848Z,1005.58
2016-07-02T02:37:20.849Z,1005.55
2016-07-02T02:38:20.852Z,1005.61
2016-07-02T02:39:21.053Z,1005.63
2016-07-02T02:40:20.852Z,1005.67
2016-07-02T02:41:20.851Z,1005.71
2016-07-02T02:42:20.851Z,1005.74
2016-07-02T02:43:20.852Z,1005.76
2016-07-02T02:44:20.855Z,1005.73
2016-07-02T02:45:20.857Z,1005.7
2016-07-02T02:46:20.854Z,1005.75
2016-07-02T02:47:20.857Z,1005.87
2016-07-02T02:48:20.859Z,1005.89
2016-07-02T02:49:20.857Z,1005.92
2016-07-02T02:50:20.857Z,1005.97
2016-07-02T02:51:20.860Z,1005.92
2016-07-02T02:52:20.862Z,1005.89
2016-07-02T02:53:20.865Z,1005.92
2016-07-02T02:54:20.864Z,1005.99
2016-07-02T02:55:20.866Z,1006.01
2016-07-02T02:56:20.865Z,1006.03
2016-07-02T02:57:20.862Z,1006.01
2016-07-02T02:58:20.867Z,1006.08
2016-07-02T02:59:20.863Z,1006.05
2016-07-02T03:00:20.866Z,1006.04
2016-07-02T03:01:20.869Z,1006.09
2016-07-02T03:02:20.870Z,1006.19
2016-07-02T03:03:20.869Z,1006.17
2016-07-02T03:04:21.071Z,1006.18
2016-07-02T03:05:20.870Z,1006.25
2016-07-02T03:06:21.077Z,1006.3
2016-07-02T03:07:21.075Z,1006.29
2016-07-02T03:08:20.874Z,1006.27
2016-07-02T03:09:20.875Z,1006.25
2016-07-02T03:10:20.880Z,1006.26
2016-07-02T03:11:20.878Z,1006.34
2016-07-02T03:12:20.878Z,1006.32
2016-07-02T03:13:20.878Z,1006.34
2016-07-02T03:14:20.878Z,1006.36
2016-07-02T03:15:20.880Z,1006.34
2016-07-02T03:16:20.882Z,1006.3
2016-07-02T03:17:20.882Z,1006.25
2016-07-02T03:18:20.885Z,1006.27
2016-07-02T03:19:20.880Z,1006.29
2016-07-02T03:20:20.883Z,1006.24
2016-07-02T03:21:20.881Z,1006.23
2016-07-02T03:22:20.886Z,1006.24
2016-07-02T03:23:20.888Z,1006.26
2016-07-02T03:24:20.887Z,1006.25
2016-07-02T03:25:20.892Z,1006.25
2016-07-02T03:26:20.892Z,1006.25
2016-07-02T03:27:20.890Z,1006.3
2016-07-02T03:28:20.887Z,1006.3
2016-07-02T03:29:20.891Z,1006.28
2016-07-02T03:30:20.890Z,1006.28
2016-07-02T03:31:20.892Z,1006.23
2016-07-02T03:32:20.893Z,1006.24
2016-07-02T03:33:20.892Z,1006.22
2016-07-02T03:34:20.895Z,1006.25
2016-07-02T03:35:20.897Z,1006.28
2016-07-02T03:36:20.898Z,1006.29
2016-07-02T03:37:20.894Z,1006.36
2016-07-02T03:38:20.898Z,1006.32
2016-07-02T03:39:20.899Z,1006.35
2016-07-02T03:40:20.900Z,1006.37
2016-07-02T03:41:20.901Z,1006.41
2016-07-02T03:42:20.902Z,1006.51
2016-07-02T03:43:20.902Z,1006.48
2016-07-02T03:44:20.902Z,1006.51
2016-07-02T03:45:20.902Z,1006.57
2016-07-02T03:46:20.905Z,1006.53
2016-07-02T03:47:20.907Z,1006.52
2016-07-02T03:48:20.903Z,1006.52
2016-07-02T03:49:20.903Z,1006.6
2016-07-02T03:50:20.908Z,1006.61
2016-07-02T03:51:20.906Z,1006.58
2016-07-02T03:52:21.108Z,1006.63
2016-07-02T03:53:20.907Z,1006.62
2016-07-02T03:54:20.912Z,1006.66
2016-07-02T03:55:20.912Z,1006.69
2016-07-02T03:56:20.909Z,1006.67
2016-07-02T03:57:20.914Z,1006.71
2016-07-02T03:58:20.911Z,1006.66
2016-07-02T03:59:20.917Z,1006.65
2016-07-02T04:00:20.912Z,1006.57
2016-07-02T04:01:20.915Z,1006.55
2016-07-02T04:02:20.915Z,1006.56
2016-07-02T04:03:20.918Z,1006.54
2016-07-02T04:04:20.919Z,1006.61
2016-07-02T04:05:20.917Z,1006.59
2016-07-02T04:06:20.919Z,1006.59
2016-07-02T04:07:20.920Z,1006.65
2016-07-02T04:08:20.922Z,1006.59
2016-07-02T04:09:20.922Z,1006.65
2016-07-02T04:10:20.922Z,1006.69
2016-07-02T04:11:20.924Z,1006.69
2016-07-02T04:12:20.920Z,1006.7
2016-07-02T04:13:20.921Z,1006.72
2016-07-02T04:14:20.923Z,1006.67
2016-07-02T04:15:20.928Z,1006.69
2016-07-02T04:16:20.929Z,1006.71
2016-07-02T04:17:20.927Z,1006.71
2016-07-02T04:18:20.927Z,1006.71
2016-07-02T04:19:20.931Z,1006.69
2016-07-02T04:20:21.132Z,1006.75
2016-07-02T04:21:20.931Z,1006.73
2016-07-02T04:22:21.128Z,1006.73
2016-07-02T04:23:20.929Z,1006.71
2016-07-02T04:24:20.931Z,1006.68
2016-07-02T04:25:20.933Z,1006.7
2016-07-02T04:26:20.933Z,1006.82
2016-07-02T04:27:20.931Z,1006.85
2016-07-02T04:28:20.934Z,1006.88
2016-07-02T04:29:20.933Z,1006.89
2016-07-02T04:30:20.938Z,1006.88
2016-07-02T04:31:20.935Z,1006.94
2016-07-02T04:32:20.938Z,1007
2016-07-02T04:33:20.933Z,1006.98
2016-07-02T04:34:20.938Z,1006.87
2016-07-02T04:35:20.933Z,1006.82
2016-07-02T04:36:20.936Z,1006.84
2016-07-02T04:37:20.938Z,1006.88
2016-07-02T04:38:20.941Z,1006.92
2016-07-02T04:39:20.937Z,1007.02
2016-07-02T04:40:20.938Z,1007.08
2016-07-02T04:41:20.939Z,1007.11
2016-07-02T04:42:20.944Z,1007.1
2016-07-02T04:43:20.948Z,1007.12
2016-07-02T04:44:20.944Z,1007.14
2016-07-02T04:45:20.943Z,1007.16
2016-07-02T04:46:20.947Z,1007.07
2016-07-02T04:47:20.946Z,1006.94
2016-07-02T04:48:20.949Z,1006.95
2016-07-02T04:49:20.945Z,1006.94
2016-07-02T04:50:20.947Z,1006.99
2016-07-02T04:51:20.949Z,1007
2016-07-02T04:52:20.948Z,1007.05
2016-07-02T04:53:20.948Z,1007.08
2016-07-02T04:54:20.950Z,1007.04
2016-07-02T04:55:20.949Z,1006.98
2016-07-02T04:56:20.945Z,1006.99
2016-07-02T04:57:20.949Z,1006.98
2016-07-02T04:58:20.949Z,1006.99
2016-07-02T04:59:20.949Z,1006.92
2016-07-02T05:00:20.950Z,1006.98
2016-07-02T05:01:20.950Z,1007.04
2016-07-02T05:02:20.955Z,1007.06
2016-07-02T05:03:20.954Z,1007.01
2016-07-02T05:04:20.953Z,1007.06
2016-07-02T05:05:20.950Z,1007.09
2016-07-02T05:06:20.950Z,1007.06
2016-07-02T05:07:20.949Z,1007.11
2016-07-02T05:08:20.954Z,1007.08
2016-07-02T05:09:20.952Z,1007.11
2016-07-02T05:10:20.951Z,1006.94
2016-07-02T05:11:20.954Z,1006.84
2016-07-02T05:12:20.952Z,1006.88
2016-07-02T05:13:20.955Z,1006.87
2016-07-02T05:14:20.952Z,1006.91
2016-07-02T05:15:20.951Z,1006.92
2016-07-02T05:16:20.952Z,1006.98
2016-07-02T05:17:20.955Z,1007.07
2016-07-02T05:18:20.954Z,1007.03
2016-07-02T05:19:20.956Z,1007.01
2016-07-02T05:20:20.956Z,1006.95
2016-07-02T05:21:20.954Z,1006.91
2016-07-02T05:22:20.957Z,1006.91
2016-07-02T05:23:20.955Z,1006.94
2016-07-02T05:24:20.955Z,1006.99
2016-07-02T05:25:20.955Z,1006.86
2016-07-02T05:26:20.956Z,1006.9
2016-07-02T05:27:20.953Z,1006.95
2016-07-02T05:28:20.970Z,1007
2016-07-02T05:29:20.954Z,1007.05
2016-07-02T05:30:20.965Z,1007.05
2016-07-02T05:31:20.958Z,1007.11
2016-07-02T05:32:20.960Z,1007.13
2016-07-02T05:33:20.959Z,1007.17
2016-07-02T05:34:20.960Z,1007.14
2016-07-02T05:35:20.961Z,1007.09
2016-07-02T05:36:20.962Z,1007.03
2016-07-02T05:37:20.960Z,1007
2016-07-02T05:38:20.959Z,1007.02
2016-07-02T05:39:20.959Z,1007.04
2016-07-02T05:40:20.956Z,1007.02
2016-07-02T05:41:20.963Z,1007.12
2016-07-02T05:42:20.959Z,1007.14
2016-07-02T05:43:20.960Z,1007.16
2016-07-02T05:44:20.959Z,1007.15
2016-07-02T05:45:20.957Z,1007.18
2016-07-02T05:46:20.958Z,1007.17
2016-07-02T05:47:20.960Z,1007.14
2016-07-02T05:48:20.956Z,1007.15
2016-07-02T05:49:20.958Z,1007.22
2016-07-02T05:50:20.960Z,1007.27
2016-07-02T05:51:20.960Z,1007.31
2016-07-02T05:52:20.959Z,1007.29
2016-07-02T05:53:20.957Z,1007.27
2016-07-02T05:54:20.959Z,1007.3
2016-07-02T05:55:20.958Z,1007.33
2016-07-02T05:56:20.959Z,1007.36
2016-07-02T05:57:20.961Z,1007.34
2016-07-02T05:58:20.960Z,1007.3
2016-07-02T05:59:20.958Z,1007.38
2016-07-02T06:00:20.958Z,1007.41
2016-07-02T06:01:20.957Z,1007.42
2016-07-02T06:02:20.960Z,1007.37
2016-07-02T06:03:21.155Z,1007.41
2016-07-02T06:04:20.954Z,1007.36
2016-07-02T06:05:20.957Z,1007.31
2016-07-02T06:06:20.957Z,1007.26
2016-07-02T06:07:20.960Z,1007.3
2016-07-02T06:08:20.960Z,1007.31
2016-07-02T06:09:20.962Z,1007.36
2016-07-02T06:10:20.962Z,1007.4
2016-07-02T06:11:20.959Z,1007.44
2016-07-02T06:12:20.958Z,1007.48
2016-07-02T06:13:20.959Z,1007.53
2016-07-02T06:14:21.162Z,1007.6
2016-07-02T06:15:20.962Z,1007.63
2016-07-02T06:16:20.957Z,1007.61
2016-07-02T06:17:20.958Z,1007.63
2016-07-02T06:18:20.959Z,1007.61
2016-07-02T06:19:20.959Z,1007.63
2016-07-02T06:20:20.959Z,1007.64
2016-07-02T06:21:20.963Z,1007.61
2016-07-02T06:22:20.960Z,1007.64
2016-07-02T06:23:20.959Z,1007.67
2016-07-02T06:24:20.959Z,1007.68
2016-07-02T06:25:20.962Z,1007.71
2016-07-02T06:26:20.962Z,1007.77
2016-07-02T06:27:20.958Z,1007.74
2016-07-02T06:28:20.962Z,1007.72
2016-07-02T06:29:21.162Z,1007.69
2016-07-02T06:30:20.959Z,1007.74
2016-07-02T06:31:20.958Z,1007.73
2016-07-02T06:32:20.960Z,1007.65
2016-07-02T06:33:20.958Z,1007.67
2016-07-02T06:34:20.960Z,1007.6
2016-07-02T06:35:20.963Z,1007.61
2016-07-02T06:36:20.953Z,1007.6
2016-07-02T06:37:20.957Z,1007.62
2016-07-02T06:38:20.959Z,1007.68
2016-07-02T06:39:20.959Z,1007.71
2016-07-02T06:40:20.960Z,1007.71
2016-07-02T06:41:20.958Z,1007.75
2016-07-02T06:42:20.960Z,1007.77
2016-07-02T06:43:20.957Z,1007.78
2016-07-02T06:44:20.959Z,1007.75
2016-07-02T06:45:20.958Z,1007.71
2016-07-02T06:46:20.960Z,1007.71
2016-07-02T06:47:20.965Z,1007.76
2016-07-02T06:48:20.960Z,1007.84
2016-07-02T06:49:20.957Z,1007.83
2016-07-02T06:50:20.957Z,1007.84
2016-07-02T06:51:20.962Z,1007.8
2016-07-02T06:52:20.958Z,1007.76
2016-07-02T06:53:20.958Z,1007.79
2016-07-02T06:54:20.953Z,1007.79
2016-07-02T06:55:20.963Z,1007.79
2016-07-02T06:56:20.956Z,1007.82
2016-07-02T06:57:20.957Z,1007.88
2016-07-02T06:58:20.957Z,1007.82
2016-07-02T06:59:20.953Z,1007.8
2016-07-02T07:00:20.956Z,1007.81
2016-07-02T07:01:20.955Z,1007.88
2016-07-02T07:02:20.955Z,1007.92
2016-07-02T07:03:20.957Z,1007.91
2016-07-02T07:04:20.956Z,1007.89
2016-07-02T07:05:20.954Z,1007.83
2016-07-02T07:06:20.950Z,1007.9
2016-07-02T07:07:20.958Z,1007.9
2016-07-02T07:08:20.951Z,1007.91
2016-07-02T07:09:20.951Z,1007.95
2016-07-02T07:10:20.950Z,1007.94
2016-07-02T07:11:20.953Z,1007.94
2016-07-02T07:12:20.951Z,1007.97
2016-07-02T07:13:20.952Z,1007.92
2016-07-02T07:14:20.952Z,1007.91
2016-07-02T07:15:20.957Z,1007.85
2016-07-02T07:16:20.953Z,1007.91
2016-07-02T07:17:20.958Z,1007.94
2016-07-02T07:18:20.951Z,1007.99
2016-07-02T07:19:20.953Z,1007.97
2016-07-02T07:20:20.953Z,1008.02
2016-07-02T07:21:20.950Z,1008.03
2016-07-02T07:22:20.951Z,1008.01
2016-07-02T07:23:20.952Z,1008.09
2016-07-02T07:24:20.951Z,1008.12
2016-07-02T07:25:20.953Z,1008.15
2016-07-02T07:26:20.950Z,1008.16
2016-07-02T07:27:20.953Z,1008.2
2016-07-02T07:28:20.954Z,1008.13
2016-07-02T07:29:20.948Z,1008.13
2016-07-02T07:30:20.946Z,1008.14
2016-07-02T07:31:20.952Z,1008.09
2016-07-02T07:32:20.951Z,1008.09
2016-07-02T07:33:20.954Z,1008.07
2016-07-02T07:34:20.949Z,1008.06
2016-07-02T07:35:20.958Z,1008.03
2016-07-02T07:36:20.948Z,1008.06
2016-07-02T07:37:20.953Z,1008.11
2016-07-02T07:38:20.951Z,1008.13
2016-07-02T07:39:20.951Z,1008.13
2016-07-02T07:40:21.153Z,1008.16
2016-07-02T07:41:20.952Z,1008.22
2016-07-02T07:42:20.951Z,1008.14
2016-07-02T07:43:20.951Z,1008.22
2016-07-02T07:44:20.954Z,1008.28
2016-07-02T07:45:20.949Z,1008.25
2016-07-02T07:46:20.948Z,1008.24
2016-07-02T07:47:20.949Z,1008.23
2016-07-02T07:48:20.950Z,1008.25
2016-07-02T07:49:20.948Z,1008.24
2016-07-02T07:50:20.948Z,1008.24
2016-07-02T07:51:20.945Z,1008.25
2016-07-02T07:52:20.948Z,1008.23
2016-07-02T07:53:21.146Z,1008.24
2016-07-02T07:54:20.944Z,1008.21
2016-07-02T07:55:20.943Z,1008.26
2016-07-02T07:56:20.944Z,1008.24
2016-07-02T07:57:20.942Z,1008.26
2016-07-02T07:58:20.947Z,1008.24
2016-07-02T07:59:20.943Z,1008.25
2016-07-02T08:00:20.940Z,1008.31
2016-07-02T08:01:20.944Z,1008.33
2016-07-02T08:02:20.944Z,1008.33
2016-07-02T08:03:21.144Z,1008.33
2016-07-02T08:04:21.142Z,1008.31
2016-07-02T08:05:20.940Z,1008.34
2016-07-02T08:06:20.940Z,1008.33
2016-07-02T08:07:20.943Z,1008.34
2016-07-02T08:08:20.943Z,1008.25
2016-07-02T08:09:20.939Z,1008.35
2016-07-02T08:10:20.944Z,1008.39
2016-07-02T08:11:20.942Z,1008.36
2016-07-02T08:12:20.939Z,1008.45
2016-07-02T08:13:20.939Z,1008.43
2016-07-02T08:14:20.940Z,1008.38
2016-07-02T08:15:20.937Z,1008.38
2016-07-02T08:16:20.940Z,1008.47
2016-07-02T08:17:20.938Z,1008.41
2016-07-02T08:18:20.939Z,1008.43
2016-07-02T08:19:20.939Z,1008.39
2016-07-02T08:20:20.938Z,1008.43
2016-07-02T08:21:20.935Z,1008.42
2016-07-02T08:22:20.936Z,1008.44
2016-07-02T08:23:20.933Z,1008.43
2016-07-02T08:24:20.930Z,1008.44
2016-07-02T08:25:20.935Z,1008.45
2016-07-02T08:26:20.936Z,1008.47
2016-07-02T08:27:20.935Z,1008.46
2016-07-02T08:28:20.936Z,1008.47
2016-07-02T08:29:20.932Z,1008.51
2016-07-02T08:30:20.934Z,1008.51
2016-07-02T08:31:20.934Z,1008.51
2016-07-02T08:32:20.932Z,1008.55
2016-07-02T08:33:20.933Z,1008.52
2016-07-02T08:34:20.928Z,1008.47
2016-07-02T08:35:20.930Z,1008.48
2016-07-02T08:36:20.932Z,1008.47
2016-07-02T08:37:20.927Z,1008.43
2016-07-02T08:38:20.928Z,1008.46
2016-07-02T08:39:20.926Z,1008.44
2016-07-02T08:40:20.929Z,1008.49
2016-07-02T08:41:20.934Z,1008.53
2016-07-02T08:42:20.922Z,1008.56
2016-07-02T08:43:20.929Z,1008.58
2016-07-02T08:44:20.928Z,1008.57
2016-07-02T08:45:20.927Z,1008.55
2016-07-02T08:46:21.127Z,1008.62
2016-07-02T08:47:20.928Z,1008.61
2016-07-02T08:48:20.925Z,1008.66
2016-07-02T08:49:20.921Z,1008.62
2016-07-02T08:50:20.927Z,1008.6
2016-07-02T08:51:20.921Z,1008.56
2016-07-02T08:52:20.922Z,1008.58
2016-07-02T08:53:20.924Z,1008.62
2016-07-02T08:54:20.920Z,1008.63
2016-07-02T08:55:20.922Z,1008.67
2016-07-02T08:56:20.920Z,1008.67
2016-07-02T08:57:20.922Z,1008.6
2016-07-02T08:58:20.921Z,1008.6
2016-07-02T08:59:20.921Z,1008.58
2016-07-02T09:00:20.922Z,1008.56
2016-07-02T09:01:20.916Z,1008.53
2016-07-02T09:02:20.920Z,1008.47
2016-07-02T09:03:20.918Z,1008.47
2016-07-02T09:04:20.922Z,1008.44
2016-07-02T09:05:20.915Z,1008.47
2016-07-02T09:06:20.917Z,1008.48
2016-07-02T09:07:20.915Z,1008.48
2016-07-02T09:08:20.916Z,1008.5
2016-07-02T09:09:20.919Z,1008.48
2016-07-02T09:10:20.918Z,1008.49
2016-07-02T09:11:20.915Z,1008.56
2016-07-02T09:12:20.914Z,1008.57
2016-07-02T09:13:20.912Z,1008.57
2016-07-02T09:14:20.914Z,1008.54
2016-07-02T09:15:21.117Z,1008.54
2016-07-02T09:16:21.111Z,1008.55
2016-07-02T09:17:20.915Z,1008.53
2016-07-02T09:18:20.909Z,1008.53
2016-07-02T09:19:20.909Z,1008.55
2016-07-02T09:20:20.910Z,1008.55
2016-07-02T09:21:20.911Z,1008.56
2016-07-02T09:22:20.909Z,1008.53
2016-07-02T09:23:20.908Z,1008.56
2016-07-02T09:24:20.911Z,1008.54
2016-07-02T09:25:20.904Z,1008.52
2016-07-02T09:26:20.907Z,1008.49
2016-07-02T09:27:20.908Z,1008.5
2016-07-02T09:28:20.907Z,1008.53
2016-07-02T09:29:20.907Z,1008.55
2016-07-02T09:30:20.906Z,1008.56
2016-07-02T09:31:20.905Z,1008.55
2016-07-02T09:32:20.909Z,1008.51
2016-07-02T09:33:20.909Z,1008.54
2016-07-02T09:34:20.905Z,1008.59
2016-07-02T09:35:20.905Z,1008.54
2016-07-02T09:36:20.905Z,1008.56
2016-07-02T09:37:20.907Z,1008.54
2016-07-02T09:38:20.907Z,1008.59
2016-07-02T09:39:20.905Z,1008.59
2016-07-02T09:40:20.910Z,1008.61
2016-07-02T09:41:20.903Z,1008.61
2016-07-02T09:42:20.899Z,1008.66
2016-07-02T09:43:20.902Z,1008.66
2016-07-02T09:44:21.098Z,1008.67
2016-07-02T09:45:20.903Z,1008.6
2016-07-02T09:46:20.900Z,1008.63
2016-07-02T09:47:20.898Z,1008.6
2016-07-02T09:48:21.098Z,1008.71
2016-07-02T09:49:20.898Z,1008.63
2016-07-02T09:50:20.896Z,1008.63
2016-07-02T09:51:20.896Z,1008.72
2016-07-02T09:52:20.896Z,1008.61
2016-07-02T09:53:20.895Z,1008.65
2016-07-02T09:54:20.895Z,1008.69
2016-07-02T09:55:20.896Z,1008.67
2016-07-02T09:56:20.894Z,1008.66
2016-07-02T09:57:20.894Z,1008.6
2016-07-02T09:58:20.893Z,1008.69
2016-07-02T09:59:20.893Z,1008.66
2016-07-02T10:00:21.093Z,1008.63
2016-07-02T10:01:20.891Z,1008.67
2016-07-02T10:02:20.894Z,1008.6
2016-07-02T10:03:20.893Z,1008.58
2016-07-02T10:04:20.890Z,1008.62
2016-07-02T10:05:20.886Z,1008.66
2016-07-02T10:06:20.889Z,1008.58
2016-07-02T10:07:20.887Z,1008.59
2016-07-02T10:08:20.888Z,1008.57
2016-07-02T10:09:20.885Z,1008.6
2016-07-02T10:10:20.884Z,1008.63
2016-07-02T10:11:20.882Z,1008.62
2016-07-02T10:12:20.880Z,1008.64
2016-07-02T10:13:20.885Z,1008.55
2016-07-02T10:14:20.945Z,1008.5
2016-07-02T10:15:20.877Z,1008.55
2016-07-02T10:16:20.879Z,1008.55
2016-07-02T10:17:20.879Z,1008.56
2016-07-02T10:18:20.883Z,1008.61
2016-07-02T10:19:20.877Z,1008.52
2016-07-02T10:20:20.874Z,1008.57
2016-07-02T10:21:20.873Z,1008.57
2016-07-02T10:22:21.084Z,1008.51
2016-07-02T10:23:20.877Z,1008.54
2016-07-02T10:24:20.878Z,1008.48
2016-07-02T10:25:20.875Z,1008.47
2016-07-02T10:26:20.874Z,1008.53
2016-07-02T10:27:20.871Z,1008.5
2016-07-02T10:28:20.871Z,1008.5
2016-07-02T10:29:20.869Z,1008.51
2016-07-02T10:30:20.868Z,1008.55
2016-07-02T10:31:20.872Z,1008.48
2016-07-02T10:32:20.871Z,1008.49
2016-07-02T10:33:20.873Z,1008.5
2016-07-02T10:34:20.869Z,1008.48
2016-07-02T10:35:20.869Z,1008.51
2016-07-02T10:36:20.868Z,1008.47
2016-07-02T10:37:20.868Z,1008.49
2016-07-02T10:38:20.866Z,1008.47
2016-07-02T10:39:20.868Z,1008.47
2016-07-02T10:40:20.868Z,1008.48
2016-07-02T10:41:20.870Z,1008.4
2016-07-02T10:42:20.864Z,1008.42
2016-07-02T10:43:20.862Z,1008.43
2016-07-02T10:44:20.862Z,1008.48
2016-07-02T10:45:20.861Z,1008.44
2016-07-02T10:46:20.861Z,1008.47
2016-07-02T10:47:20.861Z,1008.49
2016-07-02T10:48:20.858Z,1008.46
2016-07-02T10:49:20.859Z,1008.49
2016-07-02T10:50:20.858Z,1008.43
2016-07-02T10:51:20.858Z,1008.47
2016-07-02T10:52:20.855Z,1008.48
2016-07-02T10:53:20.854Z,1008.44
2016-07-02T10:54:20.852Z,1008.5
2016-07-02T10:55:20.858Z,1008.56
2016-07-02T10:56:20.857Z,1008.5
2016-07-02T10:57:20.852Z,1008.47
2016-07-02T10:58:20.853Z,1008.41
2016-07-02T10:59:20.852Z,1008.43
2016-07-02T11:00:20.853Z,1008.44
2016-07-02T11:01:20.849Z,1008.46
2016-07-02T11:02:20.852Z,1008.43
2016-07-02T11:03:20.851Z,1008.45
2016-07-02T11:04:20.850Z,1008.43
2016-07-02T11:05:20.848Z,1008.46
2016-07-02T11:06:20.848Z,1008.45
2016-07-02T11:07:20.848Z,1008.38
2016-07-02T11:08:20.849Z,1008.35
2016-07-02T11:09:20.849Z,1008.41
2016-07-02T11:10:20.851Z,1008.38
2016-07-02T11:11:20.850Z,1008.37
2016-07-02T11:12:20.849Z,1008.4
2016-07-02T11:13:20.844Z,1008.41
2016-07-02T11:14:20.851Z,1008.43
2016-07-02T11:15:20.844Z,1008.43
2016-07-02T11:16:20.843Z,1008.38
2016-07-02T11:17:20.843Z,1008.39
2016-07-02T11:18:20.845Z,1008.35
2016-07-02T11:19:20.845Z,1008.4
2016-07-02T11:20:20.842Z,1008.42
2016-07-02T11:21:20.841Z,1008.43
2016-07-02T11:22:20.841Z,1008.4
2016-07-02T11:23:20.844Z,1008.45
2016-07-02T11:24:20.841Z,1008.49
2016-07-02T11:25:20.840Z,1008.49
2016-07-02T11:26:20.844Z,1008.52
2016-07-02T11:27:21.042Z,1008.46
2016-07-02T11:28:20.842Z,1008.46
2016-07-02T11:29:20.841Z,1008.5
2016-07-02T11:30:20.841Z,1008.44
2016-07-02T11:31:21.042Z,1008.45
2016-07-02T11:32:21.042Z,1008.43
2016-07-02T11:33:20.837Z,1008.48
2016-07-02T11:34:20.838Z,1008.5
2016-07-02T11:35:20.838Z,1008.48
2016-07-02T11:36:20.836Z,1008.5
2016-07-02T11:37:20.837Z,1008.55
2016-07-02T11:38:20.836Z,1008.57
2016-07-02T11:39:20.837Z,1008.58
2016-07-02T11:40:20.833Z,1008.64
2016-07-02T11:41:20.836Z,1008.69
2016-07-02T11:42:20.838Z,1008.76
2016-07-02T11:43:20.834Z,1008.81
2016-07-02T11:44:20.830Z,1008.8
2016-07-02T11:45:20.834Z,1008.76
2016-07-02T11:46:20.832Z,1008.77
2016-07-02T11:47:20.834Z,1008.8
2016-07-02T11:48:20.831Z,1008.8
2016-07-02T11:49:20.833Z,1008.8
2016-07-02T11:50:20.830Z,1008.81
2016-07-02T11:51:20.829Z,1008.79
2016-07-02T11:52:20.831Z,1008.88
2016-07-02T11:53:20.832Z,1008.77
2016-07-02T11:54:20.830Z,1008.8
2016-07-02T11:55:21.032Z,1008.8
2016-07-02T11:56:20.832Z,1008.75
2016-07-02T11:57:20.828Z,1008.76
2016-07-02T11:58:20.828Z,1008.73
2016-07-02T11:59:20.825Z,1008.66
2016-07-02T12:00:20.827Z,1008.69
2016-07-02T12:01:20.826Z,1008.59
2016-07-02T12:02:21.028Z,1008.61
2016-07-02T12:03:21.027Z,1008.63
2016-07-02T12:04:20.829Z,1008.63
2016-07-02T12:05:20.826Z,1008.63
2016-07-02T12:06:20.827Z,1008.59
2016-07-02T12:07:20.824Z,1008.62
2016-07-02T12:08:20.826Z,1008.7